Time;durP1;ratioP1;P1;durP2;ratioP2;P2;SDS_P1;SDS_P2;PMS_P1;PMS_P2;Temp;Humidity;BMP_temperature;BMP_pressure;BME280_temperature;BME280_humidity;BME280_pressure;Samples;Min_cycle;Max_cycle;Signal;HPM_P1;HPM_P2
2022/05/20 00:00:06;;;;;;;15.13;5.23;;;;;;;39.18;40.10;101114.19;5031157;28;20788;-72
2022/05/20 00:02:32;;;;;;;10.90;6.80;;;;;;;39.19;39.71;101110.34;5032639;28;20415;-73
2022/05/20 00:04:59;;;;;;;11.17;4.63;;;;;;;39.18;39.88;101109.56;5030989;28;20431;-74
2022/05/20 00:07:26;;;;;;;23.17;5.97;;;;;;;39.13;40.43;101104.22;5030922;28;20442;-73
2022/05/20 00:09:52;;;;;;;11.97;6.53;;;;;;;38.91;40.63;101102.28;5031006;28;20506;-73
2022/05/20 00:12:19;;;;;;;10.77;5.20;;;;;;;38.81;40.86;101104.44;5030858;28;20431;-74
2022/05/20 00:14:45;;;;;;;12.03;5.83;;;;;;;38.76;41.32;101099.13;5030763;28;20459;-74
2022/05/20 00:17:11;;;;;;;13.93;6.77;;;;;;;38.73;41.58;101086.97;5030853;28;20441;-74
2022/05/20 00:19:38;;;;;;;22.07;7.80;;;;;;;38.71;41.42;101081.03;5030665;28;20929;-74
2022/05/20 00:22:05;;;;;;;22.53;6.70;;;;;;;38.61;41.53;101082.09;5030504;28;20462;-74
2022/05/20 00:24:32;;;;;;;13.13;5.13;;;;;;;38.63;41.59;101077.16;5047317;28;20427;-74
2022/05/20 00:26:58;;;;;;;19.67;8.27;;;;;;;38.75;41.07;101082.06;5032091;28;20435;-74
2022/05/20 00:29:25;;;;;;;15.13;4.97;;;;;;;38.73;41.29;101083.47;5030430;28;20479;-74
2022/05/20 00:31:51;;;;;;;30.70;8.93;;;;;;;38.70;41.29;101093.00;5047145;28;20514;-73
2022/05/20 00:34:18;;;;;;;15.97;5.70;;;;;;;38.68;41.47;101096.03;5046994;28;20845;-74
2022/05/20 00:36:44;;;;;;;18.43;6.73;;;;;;;38.67;41.61;101093.59;5030622;28;20481;-73
2022/05/20 00:39:10;;;;;;;15.50;6.90;;;;;;;38.65;41.52;101093.91;5030456;28;20490;-72
2022/05/20 00:41:36;;;;;;;9.97;5.50;;;;;;;38.69;41.19;101089.50;5030931;28;20434;-74
2022/05/20 00:44:02;;;;;;;15.23;6.33;;;;;;;38.64;41.42;101083.38;5030811;28;20423;-73
2022/05/20 00:46:29;;;;;;;23.23;6.50;;;;;;;38.61;41.54;101086.69;5030398;28;20506;-74
2022/05/20 00:49:07;;;;;;;12.30;6.47;;;;;;;38.57;41.44;101075.66;5030508;28;20478;-74
2022/05/20 00:51:39;;;;;;;27.23;6.50;;;;;;;38.64;41.24;101073.34;5032061;28;20489;-74
2022/05/20 00:54:12;;;;;;;11.67;5.40;;;;;;;38.68;41.04;101068.13;5034341;28;20451;-74
2022/05/20 00:57:08;;;;;;;18.60;6.67;;;;;;;38.65;41.03;101071.41;5034429;28;20926;-74
2022/05/20 00:59:42;;;;;;;12.23;6.33;;;;;;;38.66;41.26;101084.66;5035838;28;20502;-74
2022/05/20 01:02:14;;;;;;;22.97;7.07;;;;;;;38.70;41.15;101085.66;5050738;28;20574;-74
2022/05/20 01:04:42;;;;;;;15.90;5.67;;;;;;;38.66;41.21;101087.38;5034297;28;20481;-74
2022/05/20 01:07:08;;;;;;;15.03;6.50;;;;;;;38.69;40.97;101084.06;5034087;28;20810;-74
2022/05/20 01:09:39;;;;;;;7.80;4.97;;;;;;;38.70;41.02;101074.03;5033893;28;20463;-74
2022/05/20 01:12:06;;;;;;;11.33;7.33;;;;;;;38.68;40.65;101068.91;5034139;28;20593;-74
2022/05/20 01:14:32;;;;;;;19.43;6.13;;;;;;;38.69;41.15;101067.81;5034012;28;20416;-73
2022/05/20 01:16:58;;;;;;;18.30;8.07;;;;;;;38.78;41.27;101072.50;5034202;28;20447;-73
2022/05/20 01:19:47;;;;;;;13.73;5.97;;;;;;;38.71;41.13;101070.19;5034078;28;20423;-73
2022/05/20 01:22:23;;;;;;;17.77;6.27;;;;;;;38.69;41.19;101067.81;5033827;28;20434;-73
2022/05/20 01:24:49;;;;;;;16.57;7.17;;;;;;;38.72;41.35;101066.41;5033859;28;20451;-74
2022/05/20 01:27:15;;;;;;;16.13;7.03;;;;;;;38.73;40.91;101061.78;5033854;28;20423;-74
2022/05/20 01:29:42;;;;;;;10.70;6.43;;;;;;;38.70;41.14;101053.13;5034625;28;20463;-74
2022/05/20 01:32:08;;;;;;;18.03;9.10;;;;;;;38.76;41.43;101058.47;5033808;28;20430;-73
2022/05/20 01:34:35;;;;;;;16.60;6.70;;;;;;;38.70;41.33;101049.63;5033842;28;20427;-73
2022/05/20 01:37:01;;;;;;;10.30;4.60;;;;;;;38.69;40.99;101043.41;5033654;28;20503;-73
2022/05/20 01:39:27;;;;;;;16.90;8.57;;;;;;;38.74;40.88;101036.28;5033575;28;20562;-72
2022/05/20 01:42:06;;;;;;;13.97;5.73;;;;;;;38.74;40.90;101037.09;5033919;28;20512;-72
2022/05/20 01:44:39;;;;;;;16.70;7.17;;;;;;;38.77;40.91;101030.25;5033708;28;20518;-74
2022/05/20 01:47:23;;;;;;;20.40;8.20;;;;;;;38.77;41.16;101027.53;5033412;28;20416;-74
2022/05/20 01:50:07;;;;;;;11.03;5.57;;;;;;;38.62;41.35;101024.06;5033679;28;20463;-74
2022/05/20 01:52:42;;;;;;;15.20;7.53;;;;;;;38.68;41.20;101011.19;5050030;28;20809;-74
2022/05/20 01:55:08;;;;;;;17.97;7.33;;;;;;;38.70;41.19;101011.66;5049753;28;20482;-73
2022/05/20 01:57:41;;;;;;;22.13;6.67;;;;;;;38.72;40.80;101006.75;5034695;28;20747;-73
2022/05/20 02:00:18;;;;;;;18.97;6.90;;;;;;;38.66;41.05;101002.53;5033099;28;20886;-73
2022/05/20 02:02:50;;;;;;;23.17;6.50;;;;;;;38.66;41.09;101008.75;5032831;28;20474;-72
2022/05/20 02:05:25;;;;;;;16.47;6.40;;;;;;;38.64;41.35;101007.47;5034499;28;20498;-73
2022/05/20 02:07:59;;;;;;;13.07;5.47;;;;;;;38.60;41.13;101014.59;5049820;28;20427;-74
2022/05/20 02:10:51;;;;;;;17.13;8.33;;;;;;;38.59;41.46;101016.53;5034249;28;20472;-74
2022/05/20 02:13:18;;;;;;;20.13;8.20;;;;;;;38.42;41.36;101013.66;5032864;28;20514;-72
2022/05/20 02:15:49;;;;;;;13.63;5.50;;;;;;;38.54;41.38;101005.78;5049629;28;20423;-73
2022/05/20 02:18:27;;;;;;;16.60;6.67;;;;;;;38.58;41.42;101006.00;5034310;28;20435;-73
2022/05/20 02:21:01;;;;;;;14.40;5.80;;;;;;;38.53;41.88;101009.63;5032960;28;20478;-73
2022/05/20 02:23:34;;;;;;;10.67;7.00;;;;;;;38.56;41.86;101006.31;5049421;28;20426;-72
2022/05/20 02:26:12;;;;;;;12.27;4.53;;;;;;;38.54;42.01;101007.69;5032872;28;20427;-72
2022/05/20 02:28:45;;;;;;;17.13;6.37;;;;;;;38.40;42.54;101007.75;5032729;28;20427;-74
2022/05/20 02:31:17;;;;;;;8.60;4.47;;;;;;;38.40;42.02;101003.13;5048997;28;20563;-73
2022/05/20 02:33:43;;;;;;;16.93;6.80;;;;;;;38.43;42.02;100991.69;5032931;28;20499;-73
2022/05/20 02:36:34;;;;;;;15.23;5.83;;;;;;;38.48;42.24;100996.19;5032555;28;20860;-73
2022/05/20 02:39:02;;;;;;;11.83;5.07;;;;;;;38.39;42.04;100993.41;5033651;28;20888;-72
2022/05/20 02:41:29;;;;;;;19.67;5.10;;;;;;;38.48;41.47;100993.47;5032454;28;20429;-73
2022/05/20 02:43:55;;;;;;;17.43;5.27;;;;;;;38.50;41.91;100990.47;5032445;28;20430;-74
2022/05/20 02:46:21;;;;;;;17.20;5.00;;;;;;;38.53;41.90;100982.50;5048935;28;20439;-73
2022/05/20 02:48:47;;;;;;;16.73;5.90;;;;;;;38.55;41.80;100980.31;5032377;28;20458;-73
2022/05/20 02:51:16;;;;;;;13.27;4.00;;;;;;;38.45;41.85;100980.53;5048601;28;20459;-72
2022/05/20 02:53:47;;;;;;;19.23;6.07;;;;;;;38.48;41.90;100974.50;5032351;28;21028;-72
2022/05/20 02:56:13;;;;;;;19.33;5.10;;;;;;;38.55;41.70;100968.63;5048650;28;20426;-74
2022/05/20 03:04:11;;;;;;;11.30;5.67;;;;;;;38.62;41.57;100966.31;5033737;28;20403;-72
2022/05/20 03:06:38;;;;;;;18.80;6.83;;;;;;;38.53;41.68;100968.97;5032122;28;20423;-72
2022/05/20 03:09:06;;;;;;;10.13;5.00;;;;;;;38.42;41.91;100973.00;5031712;28;20439;-72
2022/05/20 03:11:37;;;;;;;12.87;5.10;;;;;;;38.53;41.51;100976.28;5033215;28;20412;-73
2022/05/20 03:14:04;;;;;;;14.80;6.93;;;;;;;38.55;41.68;100974.88;5032441;28;20407;-74
2022/05/20 03:16:32;;;;;;;19.53;7.20;;;;;;;38.56;41.45;100978.41;5031610;28;20454;-73
2022/05/20 03:18:58;;;;;;;14.40;5.47;;;;;;;38.50;41.39;100975.00;5031853;28;20481;-72
2022/05/20 03:21:25;;;;;;;16.00;6.03;;;;;;;38.50;41.35;100985.84;5031818;28;20430;-72
2022/05/20 03:23:52;;;;;;;17.93;6.13;;;;;;;38.52;41.56;100993.66;5048537;28;20424;-73
2022/05/20 03:26:19;;;;;;;16.83;7.00;;;;;;;38.40;41.99;100997.72;5031736;28;20423;-72
2022/05/20 03:28:45;;;;;;;19.77;5.73;;;;;;;38.43;41.73;101001.75;5031348;28;20809;-74
2022/05/20 03:31:12;;;;;;;13.40;5.77;;;;;;;38.40;41.47;101002.34;5031533;28;20548;-74
2022/05/20 03:33:40;;;;;;;12.50;5.03;;;;;;;38.45;41.53;101002.22;5031618;28;20639;-73
2022/05/20 03:36:08;;;;;;;15.13;6.57;;;;;;;38.36;42.28;101004.84;5032837;28;20404;-73
2022/05/20 03:38:35;;;;;;;15.50;5.30;;;;;;;38.45;41.59;101007.63;5031206;28;21017;-73
2022/05/20 03:41:01;;;;;;;16.27;8.40;;;;;;;38.52;41.33;101012.63;5031323;28;20431;-73
2022/05/20 03:43:28;;;;;;;17.33;6.23;;;;;;;38.21;41.46;101015.19;5031735;28;20503;-72
2022/05/20 03:45:55;;;;;;;23.50;7.40;;;;;;;38.17;41.71;101012.28;5031194;28;20407;-74
2022/05/20 03:48:21;;;;;;;12.63;5.50;;;;;;;38.33;41.26;101010.09;5031260;28;20420;-74
2022/05/20 03:50:48;;;;;;;18.30;6.47;;;;;;;38.23;41.60;101015.69;5031159;28;21008;-74
2022/05/20 03:53:14;;;;;;;17.00;5.80;;;;;;;38.21;41.36;101016.00;5031063;28;20914;-73
2022/05/20 03:55:41;;;;;;;19.97;6.10;;;;;;;38.28;41.55;101021.84;5031478;28;20917;-73
2022/05/20 03:58:07;;;;;;;14.10;5.67;;;;;;;38.35;41.32;101016.00;5031031;28;20411;-74
2022/05/20 04:01:56;;;;;;;15.17;6.27;;;;;;;38.42;41.00;101010.94;5031120;28;21056;-74
2022/05/20 04:03:19;;;;;;;21.53;7.00;;;;;;;38.26;41.40;101021.34;5032151;28;20418;-72
2022/05/20 04:05:45;;;;;;;25.87;7.53;;;;;;;38.34;41.06;101033.38;5031321;28;20431;-73
2022/05/20 04:08:12;;;;;;;18.90;6.27;;;;;;;38.39;40.79;101025.13;5047553;28;20985;-73
2022/05/20 04:10:38;;;;;;;15.10;5.47;;;;;;;38.47;40.84;101018.97;5030734;28;20471;-74
2022/05/20 04:13:04;;;;;;;18.63;7.13;;;;;;;38.51;40.94;101019.97;5030910;28;20783;-74
2022/05/20 04:15:30;;;;;;;16.57;8.17;;;;;;;38.52;40.88;101029.69;5030724;28;20880;-73
2022/05/20 04:17:56;;;;;;;16.80;7.80;;;;;;;38.52;40.74;101021.56;5030673;28;20969;-73
2022/05/20 04:20:22;;;;;;;14.07;7.20;;;;;;;38.58;40.64;101028.47;5032227;28;20400;-73
2022/05/20 04:22:48;;;;;;;13.43;6.77;;;;;;;38.57;40.51;101032.28;5030712;28;20434;-73
2022/05/20 04:25:14;;;;;;;12.93;7.03;;;;;;;38.52;40.36;101035.13;5030592;28;20447;-73
2022/05/20 04:27:40;;;;;;;14.03;7.37;;;;;;;38.53;40.43;101041.34;5030703;28;20458;-73
2022/05/20 04:30:07;;;;;;;15.73;5.47;;;;;;;38.44;40.50;101039.38;5030469;28;20466;-73
2022/05/20 04:32:34;;;;;;;18.73;5.57;;;;;;;38.55;40.38;101045.38;5030752;28;20467;-73
2022/05/20 04:35:00;;;;;;;12.70;5.50;;;;;;;38.51;40.06;101044.38;5030467;28;20837;-72
2022/05/20 04:37:27;;;;;;;14.23;6.70;;;;;;;38.47;40.55;101046.06;5031016;28;20431;-72
2022/05/20 04:39:54;;;;;;;10.63;5.20;;;;;;;38.47;40.32;101048.78;5030337;28;20515;-74
2022/05/20 04:47:51;;;;;;;24.93;7.20;;;;;;;38.44;40.52;101050.22;5032045;28;20454;-72
2022/05/20 04:50:17;;;;;;;20.50;8.17;;;;;;;38.46;40.43;101046.38;5030402;28;20961;-74
2022/05/20 04:52:43;;;;;;;15.90;7.37;;;;;;;38.46;40.05;101044.47;5030450;28;20438;-73
2022/05/20 04:55:09;;;;;;;10.73;5.70;;;;;;;38.41;40.42;101036.44;5031683;28;20517;-73
2022/05/20 04:57:48;;;;;;;15.30;7.27;;;;;;;38.43;40.15;101040.47;5030587;28;20415;-73
2022/05/20 05:00:14;;;;;;;17.90;5.80;;;;;;;38.44;40.51;101049.41;5030408;28;20411;-74
2022/05/20 05:02:41;;;;;;;17.03;5.13;;;;;;;38.49;40.53;101057.44;5030364;28;20424;-74
2022/05/20 05:05:10;;;;;;;15.20;5.70;;;;;;;38.51;40.35;101055.22;5046988;28;20459;-74
2022/05/20 05:07:39;;;;;;;18.03;7.40;;;;;;;38.56;39.96;101063.22;5030172;28;20458;-73
2022/05/20 05:10:06;;;;;;;13.53;6.83;;;;;;;38.57;40.18;101064.81;5030266;28;20475;-72
2022/05/20 05:12:32;;;;;;;24.20;8.90;;;;;;;38.57;39.88;101056.69;5030270;28;20427;-73
2022/05/20 05:14:58;;;;;;;10.70;6.40;;;;;;;38.55;39.94;101060.81;5031491;28;20545;-72
2022/05/20 05:20:20;;;;;;;19.00;6.50;;;;;;;38.57;40.27;101062.13;5031816;28;20442;-72
2022/05/20 05:22:48;;;;;;;12.40;6.97;;;;;;;38.55;40.10;101072.47;5030122;28;20446;-72
2022/05/20 05:25:15;;;;;;;24.03;8.00;;;;;;;38.57;39.91;101061.31;5030214;28;20447;-72
2022/05/20 05:27:41;;;;;;;19.77;6.83;;;;;;;38.55;40.06;101061.63;5030450;28;20797;-73
2022/05/20 05:30:10;;;;;;;20.53;6.87;;;;;;;38.57;40.05;101059.41;5040311;28;20498;-73
2022/05/20 05:32:36;;;;;;;14.60;7.40;;;;;;;38.57;39.98;101062.13;5015202;28;20498;-73
2022/05/20 05:35:07;;;;;;;20.60;6.77;;;;;;;38.53;40.43;101065.72;5010264;28;20822;-73
2022/05/20 05:37:35;;;;;;;24.17;5.63;;;;;;;38.52;40.25;101075.78;5011786;28;20482;-73
2022/05/20 05:40:01;;;;;;;13.33;6.30;;;;;;;38.55;39.98;101082.47;5013678;28;20469;-73
2022/05/20 05:42:29;;;;;;;10.60;4.97;;;;;;;38.56;40.24;101086.81;5014045;28;20970;-72
2022/05/20 05:44:56;;;;;;;16.57;5.17;;;;;;;38.60;40.10;101093.22;5013908;28;20454;-73
2022/05/20 05:47:22;;;;;;;14.53;6.77;;;;;;;38.62;40.24;101094.53;5014367;28;20436;-72
2022/05/20 05:49:48;;;;;;;19.70;6.77;;;;;;;38.60;40.48;101104.88;5033384;28;20524;-70
2022/05/20 05:52:14;;;;;;;15.40;6.83;;;;;;;38.58;40.54;101098.16;5049748;28;20531;-72
2022/05/20 05:54:40;;;;;;;11.77;6.50;;;;;;;38.54;40.63;101100.66;5050049;28;20845;-72
2022/05/20 05:57:07;;;;;;;15.63;6.80;;;;;;;38.52;40.37;101089.34;5049738;28;20930;-72
2022/05/20 05:59:33;;;;;;;13.90;6.93;;;;;;;38.57;40.46;101097.34;5032858;28;20829;-72
2022/05/20 06:02:02;;;;;;;12.03;6.10;;;;;;;38.56;40.38;101089.53;5035495;28;20948;-71
2022/05/20 06:04:28;;;;;;;18.87;6.30;;;;;;;38.57;40.76;101091.13;5023565;28;20962;-72
2022/05/20 06:06:54;;;;;;;14.27;6.40;;;;;;;38.55;40.61;101087.91;5042878;28;20489;-70
2022/05/20 06:09:22;;;;;;;18.63;6.83;;;;;;;38.57;40.34;101091.13;5025834;28;20490;-73
2022/05/20 06:11:49;;;;;;;15.40;7.83;;;;;;;38.60;40.51;101096.72;5029031;28;20424;-71
2022/05/20 06:14:16;;;;;;;20.40;8.20;;;;;;;38.64;40.03;101096.94;5031844;28;20423;-72
2022/05/20 06:16:43;;;;;;;12.80;6.50;;;;;;;38.64;39.93;101092.31;5041955;28;20417;-73
2022/05/20 06:19:09;;;;;;;15.20;6.80;;;;;;;38.71;39.93;101100.03;5045828;28;20430;-77
2022/05/20 06:21:35;;;;;;;15.90;6.93;;;;;;;38.63;40.26;101098.84;5053993;28;20972;-74
2022/05/20 06:24:01;;;;;;;20.43;6.83;;;;;;;38.63;40.13;101101.56;5065298;28;20994;-78
2022/05/20 06:26:28;;;;;;;15.27;9.00;;;;;;;38.68;39.81;101109.59;5068764;28;20449;-73
2022/05/20 06:28:54;;;;;;;15.73;6.50;;;;;;;38.68;39.89;101114.19;5068403;28;20472;-71
2022/05/20 06:31:20;;;;;;;25.10;8.20;;;;;;;38.67;39.84;101121.53;5069080;28;20462;-72
2022/05/20 06:33:46;;;;;;;16.80;6.93;;;;;;;38.68;39.71;101115.00;5068972;28;20431;-73
2022/05/20 06:41:41;;;;;;;20.30;6.97;;;;;;;38.92;39.60;101141.09;5046521;28;20505;-71
2022/05/20 06:44:07;;;;;;;23.30;7.43;;;;;;;38.99;39.33;101146.09;5058702;28;20455;-70
2022/05/20 06:46:34;;;;;;;12.73;6.40;;;;;;;38.96;39.43;101148.28;5057581;28;20485;-71
2022/05/20 06:49:01;;;;;;;17.37;6.20;;;;;;;38.91;39.38;101156.53;5059247;28;20508;-71
2022/05/20 06:51:31;;;;;;;11.70;5.50;;;;;;;38.89;39.52;101153.31;5042093;28;20530;-71
2022/05/20 06:53:59;;;;;;;11.73;5.00;;;;;;;38.91;39.56;101159.25;5041125;28;20423;-70
2022/05/20 06:56:28;;;;;;;15.47;7.40;;;;;;;38.90;39.51;101165.78;5025364;28;20940;-72
2022/05/20 06:58:56;;;;;;;11.40;5.30;;;;;;;38.95;39.24;101168.38;5026385;28;21024;-71
2022/05/20 07:01:22;;;;;;;13.97;4.83;;;;;;;38.96;39.07;101169.97;5057784;28;20416;-71
2022/05/20 07:03:49;;;;;;;15.37;5.07;;;;;;;39.03;39.09;101172.28;5051696;28;20421;-71
2022/05/20 07:06:19;;;;;;;13.27;5.00;;;;;;;39.01;38.93;101179.91;5021091;28;20474;-71
2022/05/20 07:08:48;;;;;;;9.60;4.30;;;;;;;39.01;39.07;101179.13;5024483;28;20432;-71
2022/05/20 07:11:20;;;;;;;7.23;3.27;;;;;;;39.07;38.91;101186.84;5020147;28;20502;-70
2022/05/20 07:13:49;;;;;;;12.07;6.37;;;;;;;39.03;38.87;101185.84;5030326;28;20423;-71
2022/05/20 07:16:15;;;;;;;13.53;5.43;;;;;;;39.06;39.36;101185.22;5020209;28;20831;-71
2022/05/20 07:18:41;;;;;;;15.00;5.87;;;;;;;39.09;39.14;101187.31;5022355;28;20547;-71
2022/05/20 07:21:07;;;;;;;12.60;5.60;;;;;;;39.16;39.05;101187.72;5019328;28;20431;-72
2022/05/20 07:23:34;;;;;;;13.53;5.60;;;;;;;39.17;38.99;101181.22;5021276;28;20427;-71
2022/05/20 07:26:02;;;;;;;15.57;6.47;;;;;;;39.12;39.88;101184.00;5021883;28;20496;-71
2022/05/20 07:28:30;;;;;;;20.83;12.30;;;;;;;38.93;41.46;101183.38;5019346;28;20902;-72
2022/05/20 07:30:56;;;;;;;24.10;12.00;;;;;;;38.87;41.96;101190.00;5020643;28;20482;-72
2022/05/20 07:33:22;;;;;;;20.37;14.40;;;;;;;38.81;42.21;101202.06;5028920;28;20511;-70
2022/05/20 07:35:48;;;;;;;24.07;12.80;;;;;;;38.71;42.40;101200.34;5020582;28;20412;-71
2022/05/20 07:38:14;;;;;;;21.40;11.93;;;;;;;38.59;42.70;101191.91;5026085;28;20434;-71
2022/05/20 07:40:42;;;;;;;21.87;13.73;;;;;;;38.35;43.15;101202.97;5043126;28;20427;-71
2022/05/20 07:43:10;;;;;;;33.40;15.40;;;;;;;38.44;42.76;101207.41;5057277;28;20434;-71
2022/05/20 07:45:36;;;;;;;24.63;12.40;;;;;;;38.60;42.69;101201.66;5024474;28;20428;-71
2022/05/20 07:48:02;;;;;;;19.13;11.07;;;;;;;38.65;42.03;101212.41;5031625;28;20415;-71
2022/05/20 07:50:28;;;;;;;21.40;12.60;;;;;;;38.61;42.39;101204.09;5031110;28;20945;-71
2022/05/20 07:55:46;;;;;;;17.57;11.23;;;;;;;38.29;42.88;101198.75;5023245;28;20399;-72
2022/05/20 07:58:15;;;;;;;14.23;8.90;;;;;;;38.42;42.91;101204.16;5020920;28;20426;-74
2022/05/20 08:00:41;;;;;;;17.57;11.83;;;;;;;38.65;42.34;101205.06;5029863;28;20427;-71
2022/05/20 08:03:10;;;;;;;19.50;10.53;;;;;;;38.71;42.02;101216.63;5038238;28;20447;-73
2022/05/20 08:05:36;;;;;;;38.37;12.07;;;;;;;38.63;42.45;101211.91;5029155;28;20419;-74
2022/05/20 08:08:06;;;;;;;29.70;11.47;;;;;;;38.75;42.69;101227.69;5020848;28;20404;-73
2022/05/20 08:10:35;;;;;;;32.83;14.40;;;;;;;38.83;42.17;101224.25;5021900;28;20455;-72
2022/05/20 08:13:02;;;;;;;22.90;12.00;;;;;;;38.95;41.72;101227.25;5024484;28;20462;-73
2022/05/20 08:15:31;;;;;;;21.27;11.57;;;;;;;38.81;42.05;101231.91;5030743;28;20449;-71
2022/05/20 08:17:57;;;;;;;19.80;12.30;;;;;;;38.75;42.39;101227.69;5011755;28;20930;-74
2022/05/20 08:20:27;;;;;;;26.60;13.70;;;;;;;38.79;42.61;101228.69;5030202;28;20806;-71
2022/05/20 08:22:53;;;;;;;19.00;13.27;;;;;;;38.77;42.17;101220.84;5056643;28;20427;-74
2022/05/20 08:25:25;;;;;;;17.67;10.53;;;;;;;38.82;42.16;101238.94;5039716;28;20419;-75
2022/05/20 08:27:51;;;;;;;15.70;10.47;;;;;;;38.80;42.07;101236.53;5036528;28;20985;-71
2022/05/20 08:30:22;;;;;;;17.27;9.70;;;;;;;38.77;42.07;101230.91;5046765;28;20467;-72
2022/05/20 08:32:48;;;;;;;16.80;11.37;;;;;;;38.95;41.63;101235.38;5030661;28;20412;-72
2022/05/20 08:35:15;;;;;;;19.47;13.27;;;;;;;39.16;41.63;101243.91;5033089;28;20894;-72
2022/05/20 08:37:44;;;;;;;24.33;13.30;;;;;;;39.11;41.65;101244.81;5040357;28;20427;-72
2022/05/20 08:40:13;;;;;;;20.63;13.10;;;;;;;39.06;41.84;101242.19;5035730;28;20471;-72
2022/05/20 08:42:40;;;;;;;19.57;11.97;;;;;;;39.13;41.08;101231.72;5037436;28;20415;-70
2022/05/20 08:45:08;;;;;;;12.80;7.60;;;;;;;39.14;40.52;101235.25;5021428;28;20427;-70
2022/05/20 08:47:43;;;;;;;10.83;6.57;;;;;;;39.10;40.56;101226.94;5040431;28;20917;-69
2022/05/20 08:50:20;;;;;;;11.37;7.57;;;;;;;39.10;40.47;101231.53;5067104;28;20850;-71
2022/05/20 08:52:49;;;;;;;12.40;7.00;;;;;;;39.22;40.04;101237.25;5056124;28;20522;-70
2022/05/20 08:55:15;;;;;;;12.50;7.50;;;;;;;39.25;40.21;101231.22;5063792;28;20926;-72
2022/05/20 08:57:49;;;;;;;17.53;8.23;;;;;;;39.18;40.66;101236.28;5064185;28;20418;-73
2022/05/20 09:00:16;;;;;;;16.10;9.23;;;;;;;39.18;40.98;101237.06;5058173;28;20419;-72
2022/05/20 09:02:43;;;;;;;19.13;9.30;;;;;;;39.22;40.22;101242.69;5025969;28;20427;-73
2022/05/20 09:05:25;;;;;;;17.77;9.77;;;;;;;39.20;40.83;101248.41;5040617;28;20437;-71
2022/05/20 09:08:07;;;;;;;14.70;8.97;;;;;;;39.20;40.36;101261.19;5056595;28;20420;-72
2022/05/20 09:10:35;;;;;;;14.47;9.27;;;;;;;39.22;40.52;101251.63;5028764;28;21071;-69
2022/05/20 09:16:20;;;;;;;15.03;8.60;;;;;;;39.25;40.58;101257.56;5055130;28;20487;-71
2022/05/20 09:18:49;;;;;;;16.27;8.83;;;;;;;39.26;40.59;101253.75;5050762;28;20489;-71
2022/05/20 09:21:35;;;;;;;19.03;8.97;;;;;;;39.25;40.74;101257.56;5070533;28;20442;-71
2022/05/20 09:24:15;;;;;;;17.63;8.40;;;;;;;39.32;40.64;101256.03;5053762;28;20425;-71
2022/05/20 09:26:49;;;;;;;15.30;8.90;;;;;;;39.33;40.71;101254.91;5070543;28;20443;-72
2022/05/20 09:29:33;;;;;;;15.43;9.00;;;;;;;39.37;40.82;101246.97;5070337;28;20474;-73
2022/05/20 09:32:03;;;;;;;15.43;8.00;;;;;;;39.42;40.46;101249.56;5070389;28;20483;-73
2022/05/20 09:34:36;;;;;;;13.37;6.90;;;;;;;39.40;40.70;101249.06;5053725;28;20481;-71
2022/05/20 09:37:13;;;;;;;17.83;8.47;;;;;;;39.45;40.47;101249.75;5052995;28;20454;-71
2022/05/20 09:39:41;;;;;;;12.90;5.80;;;;;;;39.45;40.19;101243.50;5051670;28;20535;-70
2022/05/20 09:42:18;;;;;;;15.27;9.07;;;;;;;39.40;40.52;101244.44;5070108;28;20423;-70
2022/05/20 09:44:48;;;;;;;13.70;9.20;;;;;;;39.39;40.56;101242.81;5054808;28;20473;-69
2022/05/20 09:47:30;;;;;;;12.83;6.97;;;;;;;39.51;40.48;101250.44;5042277;28;20435;-68
2022/05/20 09:49:59;;;;;;;12.67;8.60;;;;;;;39.61;40.15;101252.13;5034437;28;20461;-67
2022/05/20 09:53:02;;;;;;;13.67;7.50;;;;;;;39.66;39.81;101250.09;5034593;28;20431;-69
2022/05/20 09:55:39;;;;;;;10.73;6.10;;;;;;;39.74;39.60;101251.25;4986123;28;20519;-67
2022/05/20 09:58:28;;;;;;;12.93;8.17;;;;;;;39.66;39.94;101252.81;5020772;28;20791;-68
2022/05/20 10:01:04;;;;;;;12.40;6.73;;;;;;;39.63;39.97;101250.72;5022102;28;20424;-69
2022/05/20 10:03:36;;;;;;;13.73;6.90;;;;;;;39.60;39.96;101254.06;5031371;28;20423;-71
2022/05/20 10:06:26;;;;;;;13.70;6.80;;;;;;;39.63;40.16;101256.13;5022185;28;20428;-69
2022/05/20 10:09:16;;;;;;;19.00;7.90;;;;;;;39.67;39.95;101249.00;5038285;28;20455;-69
2022/05/20 10:11:54;;;;;;;14.27;6.00;;;;;;;39.66;39.81;101250.09;5032841;28;20497;-71
2022/05/20 10:14:43;;;;;;;11.90;5.30;;;;;;;39.60;39.15;101243.19;5049577;28;20455;-69
2022/05/20 10:17:51;;;;;;;9.20;4.17;;;;;;;39.64;38.98;101244.16;5032628;28;20497;-69
2022/05/20 10:20:29;;;;;;;11.17;4.50;;;;;;;39.65;38.51;101240.31;5022179;28;20424;-69
2022/05/20 10:23:01;;;;;;;12.53;5.33;;;;;;;39.69;38.74;101241.31;5033881;28;20925;-70
2022/05/20 10:25:31;;;;;;;17.70;4.40;;;;;;;39.70;39.40;101247.56;5032716;28;20412;-69
2022/05/20 10:28:12;;;;;;;17.13;5.43;;;;;;;39.63;39.14;101248.00;5032856;28;20481;-70
2022/05/20 10:33:37;;;;;;;12.27;5.43;;;;;;;39.64;39.07;101244.16;5019895;28;20391;-69
2022/05/20 10:36:27;;;;;;;12.90;6.97;;;;;;;39.62;39.05;101232.81;5032523;28;20419;-69
2022/05/20 10:38:57;;;;;;;14.00;5.03;;;;;;;39.71;38.88;101230.16;5032571;28;21032;-71
2022/05/20 10:41:34;;;;;;;10.40;5.10;;;;;;;39.66;38.79;101222.94;5033681;28;20526;-71
2022/05/20 10:50:01;;;;;;;22.83;6.27;;;;;;;39.64;38.82;101221.63;5031491;28;20509;-69
2022/05/20 10:52:53;;;;;;;13.63;4.87;;;;;;;39.64;38.98;101218.91;5046262;28;20512;-70
2022/05/20 10:55:40;;;;;;;9.93;4.07;;;;;;;39.62;39.16;101216.53;5047713;28;20428;-69
2022/05/20 10:58:36;;;;;;;9.37;5.07;;;;;;;39.59;38.86;101208.94;5047010;28;20440;-69
2022/05/20 11:01:19;;;;;;;10.43;4.43;;;;;;;39.63;39.31;101193.69;5048871;28;20435;-70
2022/05/20 11:04:03;;;;;;;13.33;4.50;;;;;;;39.73;38.80;101190.72;5043643;28;20430;-70
2022/05/20 11:06:35;;;;;;;14.83;5.20;;;;;;;39.74;38.92;101186.88;5020933;28;20459;-69
2022/05/20 11:09:06;;;;;;;9.87;4.80;;;;;;;39.68;39.12;101188.13;5038787;28;20455;-69
2022/05/20 11:11:38;;;;;;;12.50;6.17;;;;;;;39.77;39.36;101180.03;5027784;28;20462;-68
2022/05/20 11:14:37;;;;;;;10.73;4.87;;;;;;;39.80;39.06;101181.31;5027235;28;20451;-68
2022/05/20 11:17:03;;;;;;;16.17;6.63;;;;;;;39.90;39.29;101179.16;5017087;28;20872;-70
2022/05/20 11:19:59;;;;;;;14.00;6.60;;;;;;;39.75;39.86;101174.09;5021671;28;20444;-69
2022/05/20 11:22:48;;;;;;;12.37;5.23;;;;;;;39.88;39.57;101180.56;5013412;28;20404;-69
2022/05/20 11:25:54;;;;;;;9.43;4.00;;;;;;;39.74;39.64;101176.03;5028442;28;20514;-68
2022/05/20 11:28:50;;;;;;;12.73;5.53;;;;;;;39.70;39.58;101177.75;5028448;28;20409;-69
2022/05/20 11:31:33;;;;;;;9.50;5.40;;;;;;;39.78;39.88;101167.25;5011716;28;20452;-71
2022/05/20 11:34:33;;;;;;;10.83;4.47;;;;;;;39.80;38.90;101171.25;5011747;28;20470;-69
2022/05/20 11:37:05;;;;;;;8.27;4.30;;;;;;;39.96;37.89;101171.63;5016803;28;20526;-71
2022/05/20 11:40:03;;;;;;;10.73;4.23;;;;;;;39.92;38.41;101174.19;5026679;28;20529;-72
2022/05/20 11:43:26;;;;;;;11.00;6.20;;;;;;;39.75;39.15;101163.25;5031594;28;20989;-72
2022/05/20 11:46:36;;;;;;;14.70;4.70;;;;;;;39.86;38.71;101158.34;4971399;28;20426;-75
2022/05/20 11:49:05;;;;;;;9.83;5.30;;;;;;;39.90;38.68;101148.44;4937501;28;20460;-73
2022/05/20 11:51:51;;;;;;;15.10;4.80;;;;;;;39.94;38.54;101147.50;5012055;28;20475;-74
2022/05/20 11:54:33;;;;;;;7.67;4.13;;;;;;;40.01;38.13;101141.63;5030659;28;20880;-77
2022/05/20 11:57:13;;;;;;;10.20;4.80;;;;;;;40.08;38.29;101133.03;5039430;28;20468;-74
2022/05/20 11:59:51;;;;;;;20.83;6.40;;;;;;;39.97;38.65;101135.22;5030482;28;20414;-76
2022/05/20 12:02:18;;;;;;;19.60;4.63;;;;;;;40.12;37.83;101129.38;5058171;28;20909;-74
2022/05/20 12:04:48;;;;;;;8.60;4.83;;;;;;;40.27;37.59;101126.25;5047018;28;20432;-75
2022/05/20 12:07:22;;;;;;;15.90;6.03;;;;;;;40.33;37.39;101131.50;5034703;28;20426;-75
2022/05/20 12:09:54;;;;;;;14.90;7.20;;;;;;;40.23;37.77;101119.03;5041097;28;20466;-74